Map

Track Data

SID SEASON NUMBER BASIN SUBBASIN NAME ISO_TIME NATURE LAT LON WMO_WIND WMO_PRES WMO_AGENCY TRACK_TYPE DIST2LAND LANDFALL IFLAG USA_AGENCY USA_ATCF_ID USA_LAT USA_LON USA_RECORD USA_STATUS USA_WIND USA_PRES USA_SSHS USA_R34_NE USA_R34_SE USA_R34_SW USA_R34_NW USA_R50_NE USA_R50_SE USA_R50_SW USA_R50_NW USA_R64_NE USA_R64_SE USA_R64_SW USA_R64_NW USA_POCI USA_ROCI USA_RMW USA_EYE TOKYO_LAT TOKYO_LON TOKYO_GRADE TOKYO_WIND TOKYO_PRES TOKYO_R50_DIR TOKYO_R50_LONG TOKYO_R50_SHORT TOKYO_R30_DIR TOKYO_R30_LONG TOKYO_R30_SHORT TOKYO_LAND CMA_LAT CMA_LON CMA_CAT CMA_WIND CMA_PRES HKO_LAT HKO_LON HKO_CAT HKO_WIND HKO_PRES NEWDELHI_LAT NEWDELHI_LON NEWDELHI_GRADE NEWDELHI_WIND NEWDELHI_PRES NEWDELHI_CI NEWDELHI_DP NEWDELHI_POCI REUNION_LAT REUNION_LON REUNION_TYPE REUNION_WIND REUNION_PRES REUNION_TNUM REUNION_CI REUNION_RMW REUNION_R34_NE REUNION_R34_SE REUNION_R34_SW REUNION_R34_NW REUNION_R50_NE REUNION_R50_SE REUNION_R50_SW REUNION_R50_NW REUNION_R64_NE REUNION_R64_SE REUNION_R64_SW REUNION_R64_NW BOM_LAT BOM_LON BOM_TYPE BOM_WIND BOM_PRES BOM_TNUM BOM_CI BOM_RMW BOM_R34_NE BOM_R34_SE BOM_R34_SW BOM_R34_NW BOM_R50_NE BOM_R50_SE BOM_R50_SW BOM_R50_NW BOM_R64_NE BOM_R64_SE BOM_R64_SW BOM_R64_NW BOM_ROCI BOM_POCI BOM_EYE BOM_POS_METHOD BOM_PRES_METHOD NADI_LAT NADI_LON NADI_CAT NADI_WIND NADI_PRES WELLINGTON_LAT WELLINGTON_LON WELLINGTON_WIND WELLINGTON_PRES DS824_LAT DS824_LON DS824_STAGE DS824_WIND DS824_PRES TD9636_LAT TD9636_LON TD9636_STAGE TD9636_WIND TD9636_PRES TD9635_LAT TD9635_LON TD9635_WIND TD9635_PRES TD9635_ROCI NEUMANN_LAT NEUMANN_LON NEUMANN_CLASS NEUMANN_WIND NEUMANN_PRES MLC_LAT MLC_LON MLC_CLASS MLC_WIND MLC_PRES USA_GUST BOM_GUST BOM_GUST_PER REUNION_GUST REUNION_GUST_PER USA_SEAHGT USA_SEARAD_NE USA_SEARAD_SE USA_SEARAD_SW USA_SEARAD_NW STORM_SPEED STORM_DIR
1947012S12063 1947 4 SI MM NOT_NAMED 1947-01-12 00:00:00 NR -12.4180 63.2681 spur-split 1048 1039 ______________ -1 3 0
1947012S12063 1947 4 SI MM NOT_NAMED 1947-01-12 03:00:00 NR -12.5519 63.2832 spur-split 1030 1020 ______________ -1 3 171
1947012S12063 1947 4 SI MM NOT_NAMED 1947-01-12 06:00:00 NR -12.7000 63.3000 reunion spur-split 1020 1002 _____O________ -1 -12.7000 63.3000 99 9.90000 3 175
1947012S12063 1947 4 SI MM NOT_NAMED 1947-01-12 09:00:00 NR -12.8645 63.3190 spur-split 1002 993 _____P________ -1 -12.8951 63.3290 99 4 175
1947012S12063 1947 4 SI MM NOT_NAMED 1947-01-12 12:00:00 NR -13.0480 63.3410 spur-split 993 982 _____P________ -1 -13.0953 63.3588 99 4 173
1947012S12063 1947 4 SI MM NOT_NAMED 1947-01-12 15:00:00 NR -13.2532 63.3672 spur-split 973 955 _____P________ -1 -13.3061 63.3903 99 4 172
1947012S12063 1947 4 SI MM NOT_NAMED 1947-01-12 18:00:00 NR -13.4828 63.3987 spur-split 955 938 _____P________ -1 -13.5325 63.4242 99 5 172
1947012S12063 1947 4 SI MM NOT_NAMED 1947-01-12 21:00:00 NR -13.7395 63.4365 spur-split 938 919 _____P________ -1 -13.7799 63.4613 99 6 171
1947012S12063 1947 4 SI MM NOT_NAMED 1947-01-13 00:00:00 NR -14.0261 63.4820 spur-split 919 894 _____P________ -1 -14.0534 63.5024 99 6 171
1947012S12063 1947 4 SI MM NOT_NAMED 1947-01-13 03:00:00 NR -14.3454 63.5361 spur-split 894 869 _____P________ -1 -14.3584 63.5483 99 7 171
1947012S12063 1947 4 SI MM NOT_NAMED 1947-01-13 06:00:00 NR -14.7000 63.6000 reunion spur-split 869 846 _____O________ -1 -14.7000 63.6000 99 9.90000 8 171
1947012S12063 1947 4 SI MM NOT_NAMED 1947-01-13 09:00:00 NR -15.0818 63.6584 spur-split 846 817 _____P________ -1 -15.0818 63.6584 99 8 172
1947012S12063 1947 4 SI MM NOT_NAMED 1947-01-13 12:00:00 NR -15.5004 63.7250 spur-split 817 798 _____P________ -1 -15.5004 63.7250 99 9 171
1947012S12063 1947 4 SI MM NOT_NAMED 1947-01-13 15:00:00 NR -15.9507 63.8017 spur-split 791 774 _____P________ -1 -15.9507 63.8017 99 9 170
1947012S12063 1947 4 SI MM NOT_NAMED 1947-01-13 18:00:00 NR -16.4277 63.8903 spur-split 774 754 _____P________ -1 -16.4277 63.8903 99 10 169
1947012S12063 1947 4 SI MM NOT_NAMED 1947-01-13 21:00:00 NR -16.9261 63.9925 spur-split 754 738 _____P________ -1 -16.9261 63.9925 99 10 168
1947012S12063 1947 4 SI MM NOT_NAMED 1947-01-14 00:00:00 NR -17.4410 64.1103 spur-split 738 724 _____P________ -1 -17.4410 64.1103 99 11 167
1947012S12063 1947 4 SI MM NOT_NAMED 1947-01-14 03:00:00 NR -17.9673 64.2455 spur-split 719 717 _____P________ -1 -17.9673 64.2455 99 11 165
1947012S12063 1947 4 SI MM NOT_NAMED 1947-01-14 06:00:00 NR -18.5000 64.4000 reunion spur-split 720 717 _____O________ -1 -18.5000 64.4000 99 9.90000 12 163
1947012S12063 1947 4 SI MM NOT_NAMED 1947-01-14 09:00:00 NR -19.0814 64.5968 spur-split 724 722 _____P________ -1 -19.0814 64.5968 99 13 162
1947012S12063 1947 4 SI MM NOT_NAMED 1947-01-14 12:00:00 NR -19.6816 64.8174 spur-split 734 734 _____P________ -1 -19.6816 64.8174 99 13 160
1947012S12063 1947 4 SI MM NOT_NAMED 1947-01-14 15:00:00 NR -20.2851 65.0543 spur-split 761 760 _____P________ -1 -20.2851 65.0543 99 13 159
1947012S12063 1947 4 SI MM NOT_NAMED 1947-01-14 18:00:00 NR -20.8760 65.2997 spur-split 783 783 _____P________ -1 -20.8760 65.2997 99 12 158
1947012S12063 1947 4 SI MM NOT_NAMED 1947-01-14 21:00:00 NR -21.4386 65.5454 spur-split 809 809 _____P________ -1 -21.4386 65.5454 99 12 157
1947012S12063 1947 4 SI MM NOT_NAMED 1947-01-15 00:00:00 NR -21.9572 65.7830 spur-split 850 850 _____P________ -1 -21.9572 65.7830 99 11 156
1947012S12063 1947 4 SI MM NOT_NAMED 1947-01-15 03:00:00 NR -22.4162 66.0042 spur-split 880 880 _____P________ -1 -22.4162 66.0042 99 9 155
1947012S12063 1947 4 SI MM NOT_NAMED 1947-01-15 06:00:00 NR -22.8000 66.2000 reunion spur-split 912 912 _____O________ -1 -22.8000 66.2000 99 9.90000 8 154
1947012S12063 1947 4 SI MM NOT_NAMED 1947-01-15 09:00:00 NR -23.0977 66.3638 spur-split 941 941 _____P________ -1 -23.0977 66.3638 99 6 152
1947012S12063 1947 4 SI MM NOT_NAMED 1947-01-15 12:00:00 NR -23.3162 66.4975 spur-split 958 958 _____P________ -1 -23.3162 66.4975 99 4 149
1947012S12063 1947 4 SI MM NOT_NAMED 1947-01-15 15:00:00 NR -23.4669 66.6049 spur-split 975 975 _____P________ -1 -23.4669 66.6049 99 3 144
1947012S12063 1947 4 SI MM NOT_NAMED 1947-01-15 18:00:00 NR -23.5612 66.6905 spur-split 988 988 _____P________ -1 -23.5612 66.6905 99 2 135
1947012S12063 1947 4 SI MM NOT_NAMED 1947-01-15 21:00:00 NR -23.6103 66.7584 spur-split 998 998 _____P________ -1 -23.6103 66.7584 99 1 119
1947012S12063 1947 4 SI MM NOT_NAMED 1947-01-16 00:00:00 NR -23.6257 66.8130 spur-split 998 998 _____P________ -1 -23.6257 66.8130 99 1 95
1947012S12063 1947 4 SI MM NOT_NAMED 1947-01-16 03:00:00 NR -23.6185 66.8587 spur-split 1007 1007 _____P________ -1 -23.6185 66.8587 99 1 71
1947012S12063 1947 4 SI MM NOT_NAMED 1947-01-16 06:00:00 NR -23.6000 66.9000 reunion spur-split 1007 _____O________ -1 -23.6000 66.9000 99 9.90000 1 62

About IBTrACS Database

This database is a web-friendly format of International Best Track Archive for Climate Stewardship (IBTrACS), a global best track data archive curated by NOAA dating back to 1842.

Updated: 2021-12-01